createdAt,value
2022-11-28T00:00:39.290Z,22
2022-11-28T00:01:41.930Z,22
2022-11-28T00:02:44.693Z,23
2022-11-28T00:03:47.846Z,23
2022-11-28T00:04:51.803Z,23
2022-11-28T00:05:55.046Z,23
2022-11-28T00:06:57.733Z,23
2022-11-28T00:08:01.998Z,23
2022-11-28T00:09:04.836Z,23
2022-11-28T00:10:07.496Z,23
2022-11-28T00:11:10.170Z,24
2022-11-28T00:12:13.076Z,23
2022-11-28T00:13:15.717Z,22
2022-11-28T00:14:18.388Z,22
2022-11-28T00:15:21.048Z,20
2022-11-28T00:16:24.071Z,21
2022-11-28T00:17:27.022Z,20
2022-11-28T00:18:30.253Z,20
2022-11-28T00:19:32.858Z,20
2022-11-28T00:20:35.505Z,20
2022-11-28T00:21:38.173Z,20
2022-11-28T00:22:40.828Z,21
2022-11-28T00:23:43.494Z,20
2022-11-28T00:24:46.238Z,20
2022-11-28T00:25:48.840Z,21
2022-11-28T00:26:51.472Z,21
2022-11-28T00:27:54.519Z,22
2022-11-28T00:28:57.120Z,22
2022-11-28T00:29:59.758Z,22
2022-11-28T00:31:02.399Z,22
2022-11-28T00:32:05.309Z,21
2022-11-28T00:33:08.349Z,23
2022-11-28T00:34:11.225Z,27
2022-11-28T00:35:13.890Z,23
2022-11-28T00:36:16.510Z,23
2022-11-28T00:37:19.397Z,21
2022-11-28T00:38:22.279Z,22
2022-11-28T00:39:24.938Z,21
2022-11-28T00:40:27.554Z,24
2022-11-28T00:41:30.228Z,25
2022-11-28T00:42:32.858Z,25
2022-11-28T00:43:35.749Z,23
2022-11-28T00:44:38.361Z,21
2022-11-28T00:45:41.637Z,20
2022-11-28T00:46:44.410Z,19
2022-11-28T00:47:47.735Z,17
2022-11-28T00:48:50.354Z,18
2022-11-28T00:49:52.999Z,18
2022-11-28T00:50:55.589Z,20
2022-11-28T00:51:58.208Z,21
2022-11-28T00:53:00.824Z,21
2022-11-28T00:54:03.488Z,20
2022-11-28T00:55:06.142Z,20
2022-11-28T00:56:09.025Z,19
2022-11-28T00:57:11.689Z,20
2022-11-28T00:58:14.322Z,20
2022-11-28T00:59:18.232Z,18
2022-11-28T01:00:20.760Z,18
2022-11-28T01:01:23.495Z,18
2022-11-28T01:02:26.548Z,18
2022-11-28T01:03:29.786Z,19
2022-11-28T01:04:32.446Z,20
2022-11-28T01:05:35.076Z,21
2022-11-28T01:06:37.937Z,20
2022-11-28T01:07:40.572Z,19
2022-11-28T01:08:43.427Z,20
2022-11-28T01:09:46.658Z,20
2022-11-28T01:10:49.257Z,20
2022-11-28T01:11:51.923Z,20
2022-11-28T01:12:54.739Z,20
2022-11-28T01:13:57.344Z,20
2022-11-28T01:15:00.233Z,20
2022-11-28T01:16:02.975Z,19
2022-11-28T01:17:05.869Z,19
2022-11-28T01:18:08.525Z,19
2022-11-28T01:19:11.373Z,18
2022-11-28T01:20:14.056Z,18
2022-11-28T01:21:16.895Z,18
2022-11-28T01:22:19.501Z,14
2022-11-28T01:23:22.134Z,18
2022-11-28T01:24:25.012Z,17
2022-11-28T01:25:27.680Z,18
2022-11-28T01:26:30.337Z,18
2022-11-28T01:27:32.979Z,14
2022-11-28T01:28:35.598Z,14
2022-11-28T01:29:38.300Z,13
2022-11-28T01:30:41.114Z,12
2022-11-28T01:31:43.788Z,11
2022-11-28T01:32:46.717Z,11
2022-11-28T01:33:49.820Z,11
2022-11-28T01:34:52.973Z,10
2022-11-28T01:35:55.606Z,10
2022-11-28T01:36:58.264Z,11
2022-11-28T01:38:00.855Z,10
2022-11-28T01:39:03.528Z,10
2022-11-28T01:40:06.184Z,10
2022-11-28T01:41:08.805Z,10
2022-11-28T01:42:11.432Z,11
2022-11-28T01:43:14.081Z,11
2022-11-28T01:44:16.708Z,11
2022-11-28T01:45:19.357Z,10
2022-11-28T01:46:22.214Z,11
2022-11-28T01:47:24.987Z,13
2022-11-28T01:48:27.597Z,13
2022-11-28T01:49:30.244Z,11
2022-11-28T01:50:33.075Z,11
2022-11-28T01:51:35.961Z,10
2022-11-28T01:52:38.581Z,9
2022-11-28T01:53:42.042Z,10
2022-11-28T01:54:45.071Z,11
2022-11-28T01:55:47.697Z,10
2022-11-28T01:56:50.343Z,10
2022-11-28T01:57:53.009Z,10
2022-11-28T01:58:55.618Z,9
2022-11-28T01:59:58.251Z,10
2022-11-28T02:01:00.969Z,10
2022-11-28T02:02:04.246Z,8
2022-11-28T02:03:07.611Z,8
2022-11-28T02:04:10.249Z,9
2022-11-28T02:05:12.853Z,8
2022-11-28T02:06:15.695Z,9
2022-11-28T02:07:18.331Z,11
2022-11-28T02:08:21.170Z,10
2022-11-28T02:09:23.780Z,10
2022-11-28T02:10:26.414Z,10
2022-11-28T02:11:29.025Z,12
2022-11-28T02:12:31.673Z,13
2022-11-28T02:13:34.802Z,13
2022-11-28T02:14:37.430Z,13
2022-11-28T02:15:40.082Z,12
2022-11-28T02:16:42.808Z,13
2022-11-28T02:17:46.024Z,13
2022-11-28T02:18:50.507Z,13
2022-11-28T02:19:53.489Z,10
2022-11-28T02:20:56.088Z,13
2022-11-28T02:21:58.978Z,18
2022-11-28T02:23:01.614Z,18
2022-11-28T02:24:04.224Z,18
2022-11-28T02:25:06.900Z,14
2022-11-28T02:26:09.617Z,13
2022-11-28T02:27:12.254Z,11
2022-11-28T02:28:14.901Z,10
2022-11-28T02:29:17.777Z,10
2022-11-28T02:30:20.376Z,10
2022-11-28T02:31:23.055Z,11
2022-11-28T02:32:25.972Z,10
2022-11-28T02:33:28.825Z,10
2022-11-28T02:34:31.447Z,9
2022-11-28T02:35:34.072Z,9
2022-11-28T02:36:36.723Z,8
2022-11-28T02:37:39.588Z,9
2022-11-28T02:38:42.461Z,8
2022-11-28T02:39:45.084Z,9
2022-11-28T02:40:47.937Z,7
2022-11-28T02:41:50.593Z,8
2022-11-28T02:42:53.461Z,8
2022-11-28T02:43:58.395Z,8
2022-11-28T02:45:06.809Z,7
2022-11-28T02:46:09.450Z,8
2022-11-28T02:47:12.090Z,8
2022-11-28T02:48:15.299Z,8
2022-11-28T02:49:18.198Z,7
2022-11-28T02:50:20.851Z,8
2022-11-28T02:51:23.469Z,8
2022-11-28T02:52:26.091Z,8
2022-11-28T02:53:29.184Z,7
2022-11-28T02:54:31.849Z,7
2022-11-28T02:55:34.509Z,8
2022-11-28T02:56:37.141Z,8
2022-11-28T02:57:40.003Z,8
2022-11-28T02:58:42.649Z,7
2022-11-28T02:59:45.369Z,8
2022-11-28T03:00:48.260Z,8
2022-11-28T03:01:51.060Z,10
2022-11-28T03:02:53.821Z,10
2022-11-28T03:03:56.654Z,10
2022-11-28T03:04:59.527Z,10
2022-11-28T03:06:02.167Z,10
2022-11-28T03:07:04.816Z,10
2022-11-28T03:08:07.468Z,8
2022-11-28T03:09:10.364Z,11
2022-11-28T03:10:13.018Z,8
2022-11-28T03:11:15.604Z,9
2022-11-28T03:12:18.293Z,9
2022-11-28T03:13:20.936Z,9
2022-11-28T03:14:23.596Z,9
2022-11-28T03:15:26.223Z,8
2022-11-28T03:16:28.959Z,8
2022-11-28T03:17:32.030Z,10
2022-11-28T03:18:34.669Z,10
2022-11-28T03:19:37.314Z,8
2022-11-28T03:20:40.160Z,8
2022-11-28T03:21:42.777Z,9
2022-11-28T03:22:48.135Z,8
2022-11-28T03:23:50.606Z,7
2022-11-28T03:24:53.472Z,7
2022-11-28T03:25:56.087Z,8
2022-11-28T03:26:58.689Z,8
2022-11-28T03:28:01.327Z,8
2022-11-28T03:29:04.402Z,8
2022-11-28T03:30:07.012Z,10
2022-11-28T03:31:12.476Z,9
2022-11-28T03:32:15.183Z,10
2022-11-28T03:33:18.054Z,8
2022-11-28T03:34:20.730Z,8
2022-11-28T03:35:23.366Z,10
2022-11-28T03:36:27.133Z,7
2022-11-28T03:37:29.808Z,9
2022-11-28T03:38:32.492Z,8
2022-11-28T03:39:35.116Z,9
2022-11-28T03:40:37.985Z,10
2022-11-28T03:41:40.627Z,9
2022-11-28T03:42:43.251Z,8
2022-11-28T03:43:45.900Z,9
2022-11-28T03:44:48.545Z,9
2022-11-28T03:45:51.188Z,8
2022-11-28T03:46:53.836Z,9
2022-11-28T03:47:56.706Z,8
2022-11-28T03:48:59.370Z,10
2022-11-28T03:50:02.045Z,7
2022-11-28T03:51:04.712Z,8
2022-11-28T03:52:07.596Z,7
2022-11-28T03:53:10.223Z,8
2022-11-28T03:54:12.841Z,7
2022-11-28T03:55:15.486Z,7
2022-11-28T03:56:18.338Z,9
2022-11-28T03:57:20.987Z,8
2022-11-28T03:58:23.623Z,8
2022-11-28T03:59:26.274Z,10
2022-11-28T04:00:28.936Z,8
2022-11-28T04:01:31.832Z,8
2022-11-28T04:02:34.766Z,8
2022-11-28T04:03:37.611Z,8
2022-11-28T04:04:40.454Z,8
2022-11-28T04:05:44.479Z,8
2022-11-28T04:06:47.132Z,7
2022-11-28T04:07:49.908Z,8
2022-11-28T04:08:52.816Z,8
2022-11-28T04:09:55.456Z,8
2022-11-28T04:10:58.058Z,8
2022-11-28T04:12:00.895Z,8
2022-11-28T04:13:03.536Z,8
2022-11-28T04:14:06.182Z,8
2022-11-28T04:15:08.807Z,7
2022-11-28T04:16:11.524Z,10
2022-11-28T04:17:14.302Z,7
2022-11-28T04:18:16.932Z,8
2022-11-28T04:19:19.575Z,8
2022-11-28T04:20:22.212Z,8
2022-11-28T04:21:24.838Z,8
2022-11-28T04:22:27.486Z,8
2022-11-28T04:23:30.317Z,7
2022-11-28T04:24:32.958Z,8
2022-11-28T04:25:35.621Z,9
2022-11-28T04:26:38.248Z,10
2022-11-28T04:27:41.144Z,9
2022-11-28T04:28:44.047Z,9
2022-11-28T04:29:46.673Z,11
2022-11-28T04:30:49.366Z,11
2022-11-28T04:31:52.024Z,11
2022-11-28T04:32:54.845Z,11
2022-11-28T04:33:57.540Z,11
2022-11-28T04:35:00.196Z,10
2022-11-28T04:36:02.853Z,10
2022-11-28T04:37:09.541Z,10
2022-11-28T04:38:12.400Z,8
2022-11-28T04:39:15.470Z,9
2022-11-28T04:40:18.085Z,10
2022-11-28T04:41:20.743Z,8
2022-11-28T04:42:23.442Z,10
2022-11-28T04:43:26.285Z,10
2022-11-28T04:44:28.876Z,8
2022-11-28T04:45:31.608Z,8
2022-11-28T04:46:34.432Z,9
2022-11-28T04:47:37.066Z,8
2022-11-28T04:48:39.963Z,10
2022-11-28T04:49:42.558Z,9
2022-11-28T04:50:45.376Z,8
2022-11-28T04:51:48.025Z,8
2022-11-28T04:52:50.650Z,7
2022-11-28T04:53:53.284Z,8
2022-11-28T04:54:56.131Z,9
2022-11-28T04:55:58.763Z,8
2022-11-28T04:57:01.438Z,7
2022-11-28T04:58:04.049Z,8
2022-11-28T04:59:06.947Z,7
2022-11-28T05:00:09.498Z,7
2022-11-28T05:01:12.195Z,7
2022-11-28T05:02:15.087Z,7
2022-11-28T05:03:17.897Z,8
2022-11-28T05:04:20.547Z,7
2022-11-28T05:05:23.218Z,7
2022-11-28T05:06:25.812Z,8
2022-11-28T05:07:28.501Z,7
2022-11-28T05:08:31.347Z,8
2022-11-28T05:09:34.026Z,7
2022-11-28T05:10:36.940Z,7
2022-11-28T05:11:39.584Z,8
2022-11-28T05:12:42.231Z,7
2022-11-28T05:13:45.099Z,7
2022-11-28T05:14:47.971Z,7
2022-11-28T05:15:50.635Z,8
2022-11-28T05:16:53.336Z,14
2022-11-28T05:17:56.660Z,23
2022-11-28T05:18:59.261Z,23
2022-11-28T05:20:01.912Z,22
2022-11-28T05:21:04.546Z,20
2022-11-28T05:22:07.208Z,18
2022-11-28T05:23:09.855Z,18
2022-11-28T05:24:12.725Z,11
2022-11-28T05:25:15.381Z,10
2022-11-28T05:26:18.844Z,11
2022-11-28T05:27:21.442Z,13
2022-11-28T05:28:24.095Z,20
2022-11-28T05:29:26.753Z,18
2022-11-28T05:30:29.616Z,18
2022-11-28T05:31:32.227Z,15
2022-11-28T05:32:35.231Z,13
2022-11-28T05:33:38.460Z,13
2022-11-28T05:34:41.233Z,13
2022-11-28T05:35:45.059Z,11
2022-11-28T05:36:47.669Z,10
2022-11-28T05:37:50.911Z,10
2022-11-28T05:38:53.510Z,11
2022-11-28T05:39:56.156Z,11
2022-11-28T05:40:58.825Z,10
2022-11-28T05:42:01.730Z,14
2022-11-28T05:43:04.358Z,13
2022-11-28T05:44:06.976Z,11
2022-11-28T05:45:09.642Z,10
2022-11-28T05:46:13.141Z,10
2022-11-28T05:47:15.892Z,10
2022-11-28T05:48:18.540Z,10
2022-11-28T05:49:21.214Z,10
2022-11-28T05:50:23.855Z,10
2022-11-28T05:51:26.482Z,10
2022-11-28T05:52:29.129Z,10
2022-11-28T05:53:31.800Z,9
2022-11-28T05:54:34.508Z,10
2022-11-28T05:55:37.606Z,10
2022-11-28T05:56:42.445Z,9
2022-11-28T05:57:45.303Z,10
2022-11-28T05:58:47.894Z,8
2022-11-28T05:59:50.511Z,10
2022-11-28T06:00:53.141Z,10
2022-11-28T06:01:56.064Z,10
2022-11-28T06:03:01.435Z,8
2022-11-28T06:04:04.607Z,8
2022-11-28T06:05:27.610Z,9
2022-11-28T06:06:29.361Z,10
2022-11-28T06:07:31.948Z,9
2022-11-28T06:08:34.852Z,9
2022-11-28T06:09:37.499Z,10
2022-11-28T06:10:40.122Z,8
2022-11-28T06:11:42.810Z,9
2022-11-28T06:12:45.667Z,9
2022-11-28T06:13:48.513Z,8
2022-11-28T06:14:51.132Z,7
2022-11-28T06:15:53.757Z,10
2022-11-28T06:16:57.434Z,10
2022-11-28T06:18:00.440Z,10
2022-11-28T06:19:03.095Z,10
2022-11-28T06:20:07.291Z,11
2022-11-28T06:21:10.148Z,10
2022-11-28T06:22:12.829Z,10
2022-11-28T06:23:15.455Z,9
2022-11-28T06:24:18.124Z,10
2022-11-28T06:25:20.733Z,8
2022-11-28T06:26:23.574Z,7
2022-11-28T06:27:26.252Z,9
2022-11-28T06:28:28.901Z,8
2022-11-28T06:29:31.776Z,8
2022-11-28T06:30:34.387Z,8
2022-11-28T06:31:37.051Z,9
2022-11-28T06:32:39.885Z,10
2022-11-28T06:33:42.787Z,10
2022-11-28T06:34:45.425Z,11
2022-11-28T06:35:48.026Z,11
2022-11-28T06:36:50.684Z,11
2022-11-28T06:37:53.350Z,11
2022-11-28T06:38:57.337Z,13
2022-11-28T06:40:00.025Z,13
2022-11-28T06:41:02.758Z,14
2022-11-28T06:42:05.421Z,14
2022-11-28T06:43:08.264Z,14
2022-11-28T06:44:10.887Z,13
2022-11-28T06:45:14.367Z,14
2022-11-28T06:46:17.170Z,13
2022-11-28T06:47:20.025Z,11
2022-11-28T06:48:22.651Z,11
2022-11-28T06:49:25.565Z,11
2022-11-28T06:50:28.195Z,13
2022-11-28T06:51:30.826Z,13
2022-11-28T06:52:33.493Z,13
2022-11-28T06:53:36.157Z,14
2022-11-28T06:54:38.809Z,15
2022-11-28T06:55:41.433Z,15
2022-11-28T06:56:44.152Z,18
2022-11-28T06:57:46.767Z,23
2022-11-28T06:58:49.998Z,27
2022-11-28T06:59:52.592Z,29
2022-11-28T07:00:55.503Z,28
2022-11-28T07:02:26.948Z,26
2022-11-28T07:03:29.849Z,26
2022-11-28T07:04:32.629Z,23
2022-11-28T07:05:35.186Z,24
2022-11-28T07:06:37.829Z,23
2022-11-28T07:07:52.978Z,24
2022-11-28T07:08:56.752Z,26
2022-11-28T07:09:59.302Z,27
2022-11-28T07:11:01.942Z,25
2022-11-28T07:12:04.584Z,26
2022-11-28T07:13:07.222Z,25
2022-11-28T07:14:09.881Z,25
2022-11-28T07:15:12.743Z,25
2022-11-28T07:16:15.726Z,24
2022-11-28T07:17:18.809Z,22
2022-11-28T07:18:21.448Z,20
2022-11-28T07:19:24.086Z,20
2022-11-28T07:20:26.955Z,19
2022-11-28T07:21:29.613Z,17
2022-11-28T07:22:32.345Z,18
2022-11-28T07:23:35.567Z,14
2022-11-28T07:24:38.197Z,13
2022-11-28T07:25:41.301Z,13
2022-11-28T07:26:43.983Z,14
2022-11-28T07:27:46.603Z,13
2022-11-28T07:28:49.222Z,11
2022-11-28T07:29:51.861Z,13
2022-11-28T07:30:54.493Z,12
2022-11-28T07:31:57.405Z,13
2022-11-28T07:33:00.555Z,13
2022-11-28T07:34:03.650Z,13
2022-11-28T07:35:06.440Z,13
2022-11-28T07:36:09.320Z,14
2022-11-28T07:37:11.921Z,14
2022-11-28T07:38:14.555Z,13
2022-11-28T07:39:17.156Z,13
2022-11-28T07:40:19.737Z,13
2022-11-28T07:41:26.184Z,14
2022-11-28T07:42:29.849Z,14
2022-11-28T07:43:32.471Z,11
2022-11-28T07:44:35.126Z,14
2022-11-28T07:45:59.184Z,18
2022-11-28T07:46:59.689Z,18
2022-11-28T07:48:02.584Z,15
2022-11-28T07:49:05.177Z,18
2022-11-28T07:50:07.794Z,14
2022-11-28T07:51:10.505Z,15
2022-11-28T07:52:13.184Z,17
2022-11-28T07:53:15.820Z,14
2022-11-28T07:54:18.474Z,14
2022-11-28T07:55:21.113Z,22
2022-11-28T07:56:23.768Z,33
2022-11-28T07:57:26.397Z,38
2022-11-28T07:58:29.104Z,35
2022-11-28T07:59:31.993Z,28
2022-11-28T08:00:35.007Z,25
2022-11-28T08:01:37.674Z,22
2022-11-28T08:02:40.950Z,22
2022-11-28T08:03:43.667Z,21
2022-11-28T08:04:50.559Z,20
2022-11-28T08:06:01.454Z,20
2022-11-28T08:07:05.550Z,18
2022-11-28T08:08:08.215Z,19
2022-11-28T08:09:10.977Z,20
2022-11-28T08:10:13.603Z,20
2022-11-28T08:11:16.247Z,22
2022-11-28T08:12:18.854Z,23
2022-11-28T08:13:28.024Z,23
2022-11-28T08:14:30.237Z,23
2022-11-28T08:15:39.406Z,26
2022-11-28T08:16:41.687Z,26
2022-11-28T08:17:44.601Z,24
2022-11-28T08:18:47.242Z,24
2022-11-28T08:19:50.580Z,24
2022-11-28T08:20:54.192Z,23
2022-11-28T08:21:56.835Z,22
2022-11-28T08:22:59.486Z,23
2022-11-28T08:24:02.149Z,22
2022-11-28T08:25:04.840Z,22
2022-11-28T08:26:07.445Z,22
2022-11-28T08:27:10.077Z,20
2022-11-28T08:28:12.700Z,20
2022-11-28T08:29:15.414Z,21
2022-11-28T08:30:18.647Z,22
2022-11-28T08:31:21.286Z,22
2022-11-28T08:32:24.431Z,22
2022-11-28T08:33:27.065Z,22
2022-11-28T08:34:29.734Z,23
2022-11-28T08:35:32.603Z,23
2022-11-28T08:36:35.422Z,23
2022-11-28T08:37:38.309Z,23
2022-11-28T08:38:41.017Z,23
2022-11-28T08:39:43.999Z,21
2022-11-28T08:40:48.479Z,22
2022-11-28T08:41:51.098Z,22
2022-11-28T08:42:53.763Z,23
2022-11-28T08:44:10.905Z,22
2022-11-28T08:45:13.457Z,22
2022-11-28T08:46:16.094Z,22
2022-11-28T08:47:19.096Z,22
2022-11-28T08:48:21.736Z,22
2022-11-28T08:49:24.343Z,23
2022-11-28T08:50:27.010Z,22
2022-11-28T08:51:33.353Z,23
2022-11-28T08:52:35.751Z,23
2022-11-28T08:53:38.375Z,23
2022-11-28T08:54:41.317Z,22
2022-11-28T08:55:45.409Z,22
2022-11-28T08:56:48.271Z,22
2022-11-28T08:57:50.906Z,22
2022-11-28T08:58:53.597Z,23
2022-11-28T08:59:56.224Z,22
2022-11-28T09:00:58.938Z,22
2022-11-28T09:02:06.256Z,21
2022-11-28T09:03:08.566Z,21
2022-11-28T09:04:11.327Z,20
2022-11-28T09:05:14.309Z,20
2022-11-28T09:06:17.101Z,20
2022-11-28T09:07:19.796Z,20
2022-11-28T09:08:24.250Z,19
2022-11-28T09:09:30.215Z,18
2022-11-28T09:10:35.249Z,18
2022-11-28T09:11:37.910Z,18
2022-11-28T09:12:40.560Z,20
2022-11-28T09:13:43.596Z,19
2022-11-28T09:14:46.235Z,18
2022-11-28T09:15:51.319Z,19
2022-11-28T09:16:56.114Z,18
2022-11-28T09:17:59.039Z,19
2022-11-28T09:19:01.702Z,19
2022-11-28T09:20:04.431Z,18
2022-11-28T09:21:07.090Z,14
2022-11-28T09:22:09.898Z,15
2022-11-28T09:23:12.530Z,17
2022-11-28T09:24:15.191Z,18
2022-11-28T09:25:17.854Z,15
2022-11-28T09:26:20.536Z,14
2022-11-28T09:27:23.221Z,13
2022-11-28T09:28:25.870Z,13
2022-11-28T09:29:28.494Z,11
2022-11-28T09:30:31.184Z,13
2022-11-28T09:31:34.231Z,13
2022-11-28T09:32:37.214Z,11
2022-11-28T09:33:39.853Z,11
2022-11-28T09:34:42.506Z,11
2022-11-28T09:35:45.160Z,11
2022-11-28T09:36:48.020Z,11
2022-11-28T09:37:50.747Z,11
2022-11-28T09:38:53.387Z,10
2022-11-28T09:40:12.443Z,11
2022-11-28T09:41:15.708Z,11
2022-11-28T09:42:18.304Z,13
2022-11-28T09:43:20.957Z,14
2022-11-28T09:44:23.627Z,15
2022-11-28T09:45:26.285Z,20
2022-11-28T09:46:33.514Z,20
2022-11-28T09:47:36.003Z,19
2022-11-28T09:48:41.156Z,41
2022-11-28T09:49:43.665Z,42
2022-11-28T09:50:47.418Z,37
2022-11-28T09:51:55.612Z,35
2022-11-28T09:52:57.951Z,34
2022-11-28T09:54:00.875Z,35
2022-11-28T09:55:03.555Z,35
2022-11-28T09:56:06.196Z,31
2022-11-28T09:57:08.843Z,30
2022-11-28T09:58:17.278Z,28
2022-11-28T09:59:19.538Z,24
2022-11-28T10:00:22.420Z,23
2022-11-28T10:01:25.147Z,22
2022-11-28T10:02:28.179Z,22
2022-11-28T10:03:37.876Z,18
2022-11-28T10:04:57.414Z,15
2022-11-28T10:06:00.184Z,14
2022-11-28T10:07:02.770Z,13
2022-11-28T10:08:05.469Z,13
2022-11-28T10:09:08.267Z,13
2022-11-28T10:10:11.098Z,13
2022-11-28T10:11:13.800Z,20
2022-11-28T10:12:16.417Z,20
2022-11-28T10:13:19.283Z,20
2022-11-28T10:14:21.898Z,18
2022-11-28T10:15:27.764Z,20
2022-11-28T10:16:30.659Z,14
2022-11-28T10:17:33.446Z,12
2022-11-28T10:18:36.088Z,10
2022-11-28T10:19:53.672Z,11
2022-11-28T10:20:56.988Z,13
2022-11-28T10:21:59.695Z,13
2022-11-28T10:23:02.510Z,13
2022-11-28T10:24:05.152Z,11
2022-11-28T10:25:07.784Z,13
2022-11-28T10:26:11.942Z,13
2022-11-28T10:27:14.377Z,13
2022-11-28T10:28:17.045Z,13
2022-11-28T10:29:19.713Z,11
2022-11-28T10:30:22.325Z,11
2022-11-28T10:31:25.597Z,11
2022-11-28T10:32:35.090Z,11
2022-11-28T10:33:37.366Z,10
2022-11-28T10:34:40.004Z,11
2022-11-28T10:35:42.627Z,11
2022-11-28T10:36:51.825Z,10
2022-11-28T10:37:54.120Z,10
2022-11-28T10:38:56.957Z,10
2022-11-28T10:39:59.680Z,10
2022-11-28T10:41:02.312Z,8
2022-11-28T10:42:04.961Z,10
2022-11-28T10:43:07.662Z,8
2022-11-28T10:44:10.317Z,8
2022-11-28T10:45:12.982Z,7
2022-11-28T10:46:15.646Z,7
2022-11-28T10:47:18.776Z,7
2022-11-28T10:48:39.428Z,7
2022-11-28T10:49:45.076Z,7
2022-11-28T10:50:48.145Z,7
2022-11-28T10:51:50.787Z,7
2022-11-28T10:52:53.433Z,6
2022-11-28T10:53:56.064Z,7
2022-11-28T10:54:58.693Z,6
2022-11-28T10:56:11.341Z,6
2022-11-28T10:57:14.008Z,6
2022-11-28T10:58:16.611Z,6
2022-11-28T10:59:19.225Z,7
2022-11-28T11:00:21.941Z,5
2022-11-28T11:01:24.903Z,6
2022-11-28T11:02:31.284Z,7
2022-11-28T11:03:34.231Z,6
2022-11-28T11:06:00.080Z,6
2022-11-28T11:07:11.357Z,7
2022-11-28T11:08:24.436Z,6
2022-11-28T11:09:27.533Z,6
2022-11-28T11:10:30.163Z,7
2022-11-28T11:11:32.980Z,6
2022-11-28T11:12:41.409Z,7
2022-11-28T11:13:43.757Z,7
2022-11-28T11:14:46.391Z,8
2022-11-28T11:15:49.093Z,8
2022-11-28T11:16:56.581Z,8
2022-11-28T11:18:08.471Z,7
2022-11-28T11:19:10.650Z,7
2022-11-28T11:20:23.159Z,7
2022-11-28T11:21:41.553Z,6
2022-11-28T11:22:46.107Z,6
2022-11-28T11:23:49.092Z,5
2022-11-28T11:24:51.561Z,6
2022-11-28T11:25:54.225Z,6
2022-11-28T11:26:57.074Z,5
2022-11-28T11:27:59.749Z,4
2022-11-28T11:29:02.392Z,6
2022-11-28T11:30:05.039Z,6
2022-11-28T11:31:07.850Z,7
2022-11-28T11:32:10.703Z,7
2022-11-28T11:33:13.390Z,7
2022-11-28T11:34:21.611Z,7
2022-11-28T11:35:23.805Z,8
2022-11-28T11:36:26.477Z,7
2022-11-28T11:37:30.725Z,7
2022-11-28T11:38:37.429Z,6
2022-11-28T11:39:40.870Z,6
2022-11-28T11:40:44.509Z,6
2022-11-28T11:41:47.144Z,6
2022-11-28T11:42:49.855Z,4
2022-11-28T11:43:53.360Z,5
2022-11-28T11:44:56.008Z,4
2022-11-28T11:45:58.706Z,5
2022-11-28T11:47:01.691Z,4
2022-11-28T11:48:04.315Z,4
2022-11-28T11:49:06.997Z,4
2022-11-28T11:50:10.623Z,4
2022-11-28T11:51:13.323Z,4
2022-11-28T11:52:15.960Z,4
2022-11-28T11:53:18.638Z,4
2022-11-28T11:54:21.507Z,4
2022-11-28T11:55:24.167Z,4
2022-11-28T11:56:32.325Z,4
2022-11-28T11:57:34.949Z,4
2022-11-28T11:58:37.865Z,4
2022-11-28T11:59:40.813Z,4
2022-11-28T12:00:44.921Z,4
2022-11-28T12:01:47.557Z,3
2022-11-28T12:02:50.565Z,3
2022-11-28T12:03:54.008Z,3
2022-11-28T12:04:57.086Z,3
2022-11-28T12:06:13.576Z,3
2022-11-28T12:07:17.427Z,3
2022-11-28T12:08:20.376Z,4
2022-11-28T12:09:24.338Z,4
2022-11-28T12:10:27.170Z,4
2022-11-28T12:11:29.757Z,4
2022-11-28T12:12:33.018Z,4
2022-11-28T12:13:35.627Z,3
2022-11-28T12:14:44.261Z,3
2022-11-28T12:15:47.671Z,3
2022-11-28T12:16:50.670Z,3
2022-11-28T12:17:57.404Z,3
2022-11-28T12:19:07.312Z,3
2022-11-28T12:20:09.563Z,3
2022-11-28T12:21:16.769Z,3
2022-11-28T12:22:20.234Z,3
2022-11-28T12:23:22.855Z,4
2022-11-28T12:24:26.042Z,3
2022-11-28T12:25:28.537Z,3
2022-11-28T12:26:31.405Z,3
2022-11-28T12:27:34.063Z,3
2022-11-28T12:28:36.789Z,2
2022-11-28T12:29:39.466Z,3
2022-11-28T12:30:46.784Z,3
2022-11-28T12:31:51.593Z,2
2022-11-28T12:32:54.266Z,3
2022-11-28T12:33:56.973Z,3
2022-11-28T12:35:05.153Z,3
2022-11-28T12:36:07.498Z,3
2022-11-28T12:37:10.106Z,3
2022-11-28T12:38:12.806Z,3
2022-11-28T12:39:27.044Z,3
2022-11-28T12:40:29.490Z,3
2022-11-28T12:41:35.768Z,3
2022-11-28T12:42:38.382Z,3
2022-11-28T12:43:40.986Z,4
2022-11-28T12:44:49.152Z,3
2022-11-28T12:46:01.076Z,3
2022-11-28T12:47:03.914Z,3
2022-11-28T12:48:07.162Z,4
2022-11-28T12:49:09.899Z,3
2022-11-28T12:50:16.040Z,3
2022-11-28T12:51:18.491Z,3
2022-11-28T12:52:21.124Z,3
2022-11-28T12:53:23.850Z,3
2022-11-28T12:54:26.559Z,3
2022-11-28T12:55:29.649Z,3
2022-11-28T12:56:32.333Z,3
2022-11-28T12:57:35.036Z,3
2022-11-28T12:58:43.209Z,3
2022-11-28T12:59:45.697Z,3
2022-11-28T13:00:50.107Z,3
2022-11-28T13:01:52.981Z,4
2022-11-28T13:02:55.806Z,4
2022-11-28T13:04:04.208Z,6
2022-11-28T13:05:07.129Z,4
2022-11-28T13:06:09.831Z,4
2022-11-28T13:07:12.715Z,4
2022-11-28T13:08:15.730Z,4
2022-11-28T13:09:18.417Z,5
2022-11-28T13:10:21.109Z,6
2022-11-28T13:11:25.328Z,7
2022-11-28T13:12:27.647Z,7
2022-11-28T13:13:30.304Z,7
2022-11-28T13:14:32.996Z,7
2022-11-28T13:15:38.087Z,7
2022-11-28T13:16:40.872Z,6
2022-11-28T13:17:43.782Z,6
2022-11-28T13:18:47.936Z,5
2022-11-28T13:19:50.285Z,6
2022-11-28T13:20:54.190Z,6
2022-11-28T13:21:56.806Z,5
2022-11-28T13:23:01.301Z,5
2022-11-28T13:24:09.163Z,5
2022-11-28T13:25:11.373Z,4
2022-11-28T13:26:19.547Z,3
2022-11-28T13:27:23.276Z,3
2022-11-28T13:28:30.759Z,3
2022-11-28T13:29:38.932Z,4
2022-11-28T13:30:41.167Z,4
2022-11-28T13:31:48.337Z,5
2022-11-28T13:32:51.214Z,4
2022-11-28T13:33:53.823Z,4
2022-11-28T13:34:57.292Z,5
2022-11-28T13:39:11.587Z,4
2022-11-28T13:40:14.947Z,4
2022-11-28T13:41:35.665Z,4
2022-11-28T13:43:08.901Z,4
2022-11-28T13:44:01.243Z,4
2022-11-28T13:45:03.801Z,4
2022-11-28T13:46:06.485Z,5
2022-11-28T13:47:09.303Z,4
2022-11-28T13:48:12.039Z,4
2022-11-28T13:49:20.124Z,4
2022-11-28T13:50:23.855Z,5
2022-11-28T13:51:30.813Z,4
2022-11-28T13:52:36.000Z,4
2022-11-28T13:53:38.607Z,3
2022-11-28T13:54:41.462Z,3
2022-11-28T13:55:47.258Z,3
2022-11-28T13:56:54.145Z,3
2022-11-28T13:57:56.387Z,3
2022-11-28T13:59:00.027Z,3
2022-11-28T14:00:02.603Z,3
2022-11-28T14:01:05.812Z,3
2022-11-28T14:02:08.687Z,3
2022-11-28T14:03:11.625Z,3
2022-11-28T14:04:14.781Z,3
2022-11-28T14:05:24.707Z,3
2022-11-28T14:06:28.899Z,3
2022-11-28T14:07:33.167Z,3
2022-11-28T14:08:36.231Z,3
2022-11-28T14:09:38.894Z,3
2022-11-28T14:10:41.555Z,3
2022-11-28T14:11:44.340Z,3
2022-11-28T14:12:47.129Z,3
2022-11-28T14:13:49.683Z,3
2022-11-28T14:14:52.578Z,3
2022-11-28T14:16:05.300Z,3
2022-11-28T14:17:09.919Z,4
2022-11-28T14:18:31.850Z,4
2022-11-28T14:19:34.919Z,7
2022-11-28T14:20:46.761Z,5
2022-11-28T14:21:48.753Z,5
2022-11-28T14:22:51.427Z,5
2022-11-28T14:23:54.024Z,6
2022-11-28T14:24:56.734Z,5
2022-11-28T14:26:00.901Z,5
2022-11-28T14:27:03.433Z,4
2022-11-28T14:28:06.145Z,4
2022-11-28T14:29:08.794Z,4
2022-11-28T14:30:11.447Z,5
2022-11-28T14:31:14.175Z,4
2022-11-28T14:32:29.958Z,4
2022-11-28T14:33:33.937Z,4
2022-11-28T14:34:36.653Z,4
2022-11-28T14:35:39.333Z,4
2022-11-28T14:36:42.041Z,4
2022-11-28T14:37:44.719Z,4
2022-11-28T14:38:47.856Z,4
2022-11-28T14:39:55.994Z,4
2022-11-28T14:40:59.825Z,4
2022-11-28T14:42:03.268Z,4
2022-11-28T14:43:05.905Z,4
2022-11-28T14:44:08.824Z,4
2022-11-28T14:45:11.467Z,4
2022-11-28T14:46:20.262Z,4
2022-11-28T14:47:22.763Z,4
2022-11-28T14:48:25.462Z,4
2022-11-28T14:49:28.300Z,3
2022-11-28T14:50:36.953Z,3
2022-11-28T14:51:43.752Z,3
2022-11-28T14:52:47.531Z,3
2022-11-28T14:53:50.128Z,4
2022-11-28T14:54:53.235Z,3
2022-11-28T14:56:10.372Z,3
2022-11-28T14:57:18.822Z,3
2022-11-28T14:58:21.045Z,3
2022-11-28T14:59:23.688Z,4
2022-11-28T15:00:32.020Z,4
2022-11-28T15:01:34.956Z,3
2022-11-28T15:02:43.276Z,4
2022-11-28T15:03:47.636Z,3
2022-11-28T15:04:50.391Z,4
2022-11-28T15:05:53.362Z,5
2022-11-28T15:06:56.026Z,4
2022-11-28T15:07:58.791Z,3
2022-11-28T15:09:07.257Z,4
2022-11-28T15:10:09.638Z,4
2022-11-28T15:11:14.212Z,4
2022-11-28T15:12:18.379Z,4
2022-11-28T15:13:21.784Z,4
2022-11-28T15:14:25.007Z,4
2022-11-28T15:15:33.019Z,4
2022-11-28T15:16:35.392Z,4
2022-11-28T15:17:43.787Z,4
2022-11-28T15:18:51.556Z,4
2022-11-28T15:19:53.818Z,4
2022-11-28T15:21:01.061Z,4
2022-11-28T15:22:03.436Z,5
2022-11-28T15:23:06.739Z,4
2022-11-28T15:24:09.894Z,4
2022-11-28T15:25:12.563Z,5
2022-11-28T15:26:16.735Z,4
2022-11-28T15:27:19.228Z,4